TimeEDT,TemperatureF,Dew PointF,Humidity,Sea Level PressureIn,VisibilityMPH,Wind Direction,Wind SpeedMPH,Gust SpeedMPH,PrecipitationIn,Events,Conditions,WindDirDegrees,DateUTC
12:53 AM,73.9,63.0,68,30.02,10.0,SSW,4.6,-,N/A,,Mostly Cloudy,200,2013-05-07 04:53:00
1:53 AM,73.0,64.0,73,30.01,10.0,SSW,6.9,-,N/A,,Clear,200,2013-05-07 05:53:00
2:53 AM,73.0,63.0,71,29.99,10.0,South,9.2,-,N/A,,Partly Cloudy,190,2013-05-07 06:53:00
3:53 AM,73.9,64.0,71,29.99,10.0,West,5.8,-,N/A,,Scattered Clouds,270,2013-05-07 07:53:00
4:53 AM,72.0,66.0,81,30.00,10.0,WNW,3.5,-,N/A,,Clear,300,2013-05-07 08:53:00
5:53 AM,73.0,66.0,79,30.01,10.0,NW,6.9,-,N/A,,Partly Cloudy,310,2013-05-07 09:53:00
6:53 AM,72.0,66.0,81,30.02,10.0,NNW,4.6,-,N/A,,Partly Cloudy,330,2013-05-07 10:53:00
7:53 AM,73.9,64.9,73,30.04,10.0,NW,4.6,-,N/A,,Partly Cloudy,320,2013-05-07 11:53:00
8:53 AM,77.0,64.0,64,30.06,10.0,Calm,Calm,-,N/A,,Partly Cloudy,0,2013-05-07 12:53:00
9:53 AM,78.1,63.0,60,30.06,10.0,Calm,Calm,-,N/A,,Partly Cloudy,0,2013-05-07 13:53:00
10:53 AM,79.0,64.0,60,30.06,10.0,South,4.6,-,N/A,,Partly Cloudy,180,2013-05-07 14:53:00
11:53 AM,80.1,64.9,60,30.07,10.0,Calm,Calm,-,N/A,,Partly Cloudy,0,2013-05-07 15:53:00
12:53 PM,81.0,64.0,56,30.06,10.0,Variable,5.8,-,N/A,,Partly Cloudy,0,2013-05-07 16:53:00
1:53 PM,80.1,64.0,58,30.05,10.0,West,4.6,-,N/A,,Partly Cloudy,270,2013-05-07 17:53:00
2:53 PM,78.1,64.0,62,30.04,10.0,SW,4.6,-,N/A,,Mostly Cloudy,220,2013-05-07 18:53:00
3:53 PM,78.1,64.0,62,30.03,10.0,West,5.8,-,N/A,,Mostly Cloudy,280,2013-05-07 19:53:00
4:53 PM,79.0,64.0,60,30.03,10.0,NNW,8.1,-,N/A,,Mostly Cloudy,340,2013-05-07 20:53:00
5:53 PM,80.1,64.9,60,30.02,10.0,NNW,8.1,-,N/A,,Scattered Clouds,330,2013-05-07 21:53:00
6:53 PM,78.1,64.9,64,30.03,10.0,NNW,8.1,-,N/A,,Mostly Cloudy,340,2013-05-07 22:53:00
7:53 PM,75.0,64.0,69,30.04,10.0,North,5.8,-,N/A,,Scattered Clouds,350,2013-05-07 23:53:00
8:53 PM,73.9,64.9,73,30.06,10.0,North,8.1,-,N/A,,Scattered Clouds,350,2013-05-08 00:53:00
9:53 PM,73.0,64.9,76,30.07,10.0,North,4.6,-,N/A,,Scattered Clouds,360,2013-05-08 01:53:00
10:53 PM,73.0,64.9,76,30.09,10.0,North,5.8,-,N/A,,Clear,360,2013-05-08 02:53:00
11:53 PM,73.0,64.9,76,30.09,10.0,North,4.6,-,N/A,,Clear,10,2013-05-08 03:53:00